Time;durP1;ratioP1;P1;durP2;ratioP2;P2;SDS_P1;SDS_P2;PMS_P1;PMS_P2;Temp;Humidity;BMP_temperature;BMP_pressure;BME280_temperature;BME280_humidity;BME280_pressure;Samples;Min_cycle;Max_cycle;Signal;HPM_P1;HPM_P2
2021/05/20 00:00:26;;;;;;;31.98;24.75;;;;;;;9.84;100.00;101981.84;10259299;28;20058;-76
2021/05/20 00:05:27;;;;;;;35.92;25.42;;;;;;;9.88;100.00;101988.19;10300431;28;20046;-76
2021/05/20 00:10:27;;;;;;;33.60;24.58;;;;;;;9.74;100.00;101972.22;10287591;28;20046;-76
2021/05/20 00:15:28;;;;;;;32.47;23.67;;;;;;;9.71;100.00;101995.25;10275715;28;20046;-76
2021/05/20 00:20:28;;;;;;;35.30;24.10;;;;;;;9.63;100.00;101998.78;10275770;28;20030;-76
2021/05/20 00:25:29;;;;;;;36.35;24.48;;;;;;;9.51;100.00;102001.38;10281419;28;20050;-76
2021/05/20 00:30:29;;;;;;;40.47;24.08;;;;;;;9.39;100.00;102004.75;10240209;28;20046;-76
2021/05/20 00:35:30;;;;;;;32.92;23.35;;;;;;;9.34;100.00;102001.44;10289115;28;20039;-76
2021/05/20 00:40:30;;;;;;;30.75;23.65;;;;;;;9.30;100.00;102002.06;10287792;28;20035;-76
2021/05/20 00:45:31;;;;;;;31.30;23.50;;;;;;;9.39;100.00;102009.34;10307225;28;20043;-75
2021/05/20 00:50:31;;;;;;;32.78;23.40;;;;;;;9.27;100.00;102008.09;10267170;28;20261;-76
2021/05/20 00:55:34;;;;;;;31.42;22.30;;;;;;;9.21;100.00;101993.19;10265227;28;20042;-76
2021/05/20 01:00:36;;;;;;;28.88;20.80;;;;;;;9.17;100.00;102008.47;10252474;28;20082;-76
2021/05/20 01:05:37;;;;;;;29.17;22.30;;;;;;;8.97;100.00;101987.53;10276499;28;20057;-76
2021/05/20 01:10:37;;;;;;;29.35;22.35;;;;;;;9.08;100.00;102015.78;10284550;28;20050;-77
2021/05/20 01:15:39;;;;;;;28.13;20.17;;;;;;;8.99;100.00;102015.00;10285915;28;20045;-76
2021/05/20 01:20:42;;;;;;;28.88;21.67;;;;;;;9.03;100.00;102024.00;10272208;28;20038;-76
2021/05/20 01:25:45;;;;;;;30.98;22.52;;;;;;;8.91;100.00;102013.06;10274218;28;20035;-76
2021/05/20 01:30:46;;;;;;;35.72;23.10;;;;;;;9.01;100.00;102031.66;10296103;28;20542;-76
2021/05/20 01:35:48;;;;;;;27.90;21.20;;;;;;;9.02;100.00;102033.22;10284652;28;20085;-76
2021/05/20 01:40:50;;;;;;;33.00;22.83;;;;;;;8.80;100.00;102016.09;10268338;28;20032;-76
2021/05/20 01:45:56;;;;;;;31.63;22.23;;;;;;;8.82;100.00;102040.84;10283557;28;20058;-76
2021/05/20 01:51:25;;;;;;;31.75;24.05;;;;;;;8.83;100.00;102042.44;10278575;28;20031;-76
2021/05/20 01:56:25;;;;;;;30.45;22.77;;;;;;;8.62;100.00;102036.09;10277147;28;20059;-76
2021/05/20 02:01:26;;;;;;;33.58;24.42;;;;;;;8.69;100.00;102041.78;10264587;28;20348;-76
2021/05/20 02:06:26;;;;;;;42.42;28.35;;;;;;;8.71;100.00;102034.19;10280155;28;20086;-76
2021/05/20 02:11:27;;;;;;;42.58;28.98;;;;;;;9.07;100.00;102024.97;10304905;28;20050;-76
2021/05/20 02:16:27;;;;;;;44.58;30.17;;;;;;;9.11;100.00;101998.94;10265827;28;20074;-76
2021/05/20 02:21:28;;;;;;;46.30;29.45;;;;;;;9.37;100.00;102033.94;10277650;28;20042;-76
2021/05/20 02:26:28;;;;;;;48.42;31.83;;;;;;;9.47;100.00;102032.81;10263187;28;20042;-76
2021/05/20 02:31:29;;;;;;;53.13;33.97;;;;;;;9.11;100.00;101961.19;10281219;28;20043;-76
2021/05/20 02:36:30;;;;;;;61.40;36.22;;;;;;;9.57;100.00;102016.28;10280875;28;20113;-76
2021/05/20 02:41:30;;;;;;;61.42;37.72;;;;;;;9.81;100.00;102036.53;10273400;28;20043;-76
2021/05/20 02:46:31;;;;;;;66.10;38.30;;;;;;;9.56;100.00;101979.59;10274706;28;20118;-76
2021/05/20 02:51:31;;;;;;;68.45;40.97;;;;;;;9.88;100.00;102015.19;10247790;28;20058;-76
2021/05/20 02:56:32;;;;;;;66.38;39.83;;;;;;;9.94;100.00;102008.47;10263262;28;20126;-76
2021/05/20 03:01:39;;;;;;;69.32;40.20;;;;;;;9.96;100.00;102033.25;10300837;28;20042;-77
2021/05/20 03:06:40;;;;;;;64.70;41.05;;;;;;;9.62;100.00;101989.09;10292157;28;20043;-76
2021/05/20 03:11:41;;;;;;;62.80;41.15;;;;;;;9.91;100.00;102025.34;10244672;28;20141;-76
2021/05/20 03:16:41;;;;;;;67.72;41.83;;;;;;;9.87;100.00;102013.59;10279962;28;20146;-76
2021/05/20 03:21:42;;;;;;;71.70;42.13;;;;;;;9.36;100.00;101945.22;10257956;28;20039;-76
2021/05/20 03:26:43;;;;;;;84.05;47.88;;;;;;;9.75;100.00;102017.00;10261622;28;20043;-76
2021/05/20 03:31:44;;;;;;;80.50;45.80;;;;;;;9.70;100.00;102012.56;10285583;28;20113;-76
2021/05/20 03:36:45;;;;;;;84.50;45.97;;;;;;;9.55;100.00;101996.91;10281354;28;20098;-76
2021/05/20 03:41:46;;;;;;;83.22;46.15;;;;;;;9.68;100.00;102009.38;10299024;28;20086;-76
2021/05/20 03:46:46;;;;;;;88.32;48.42;;;;;;;9.69;100.00;102013.69;10301553;28;20090;-76
2021/05/20 03:51:47;;;;;;;84.70;45.58;;;;;;;9.53;100.00;101993.75;10287967;28;20047;-76
2021/05/20 03:56:47;;;;;;;61.22;37.55;;;;;;;9.44;100.00;102006.47;10286540;28;20097;-76
2021/05/20 04:01:47;;;;;;;60.03;37.20;;;;;;;9.44;100.00;102017.28;10269267;28;20149;-76
2021/05/20 04:06:48;;;;;;;60.13;35.33;;;;;;;9.29;100.00;102011.28;10286320;28;20126;-76
2021/05/20 04:11:48;;;;;;;112.95;41.00;;;;;;;9.16;100.00;102006.84;10279861;28;20049;-77
2021/05/20 04:16:49;;;;;;;82.63;41.42;;;;;;;9.17;100.00;102008.47;10271192;28;20031;-76
2021/05/20 04:21:49;;;;;;;80.63;42.60;;;;;;;9.10;100.00;102002.72;10276593;28;20043;-77
2021/05/20 04:26:54;;;;;;;91.78;46.28;;;;;;;9.12;100.00;101995.13;10269223;28;20090;-76
2021/05/20 04:31:54;;;;;;;165.18;48.55;;;;;;;8.96;100.00;101959.78;10298794;28;20050;-76
2021/05/20 04:36:55;;;;;;;93.97;46.70;;;;;;;9.26;100.00;101990.31;10299971;28;20046;-76
2021/05/20 04:41:55;;;;;;;104.97;49.95;;;;;;;9.36;100.00;102009.97;10244908;28;20045;-77
2021/05/20 04:46:55;;;;;;;232.80;52.60;;;;;;;9.11;100.00;101982.75;10283906;28;20411;-78
2021/05/20 04:51:56;;;;;;;133.15;48.65;;;;;;;9.24;100.00;102000.66;10248375;28;20039;-78
2021/05/20 04:56:56;;;;;;;310.42;52.90;;;;;;;9.36;100.00;102004.59;10268952;28;20038;-78
2021/05/20 05:01:57;;;;;;;105.60;49.83;;;;;;;9.53;100.00;102020.75;10250707;28;20051;-77
2021/05/20 05:06:58;;;;;;;135.65;55.22;;;;;;;9.80;100.00;102018.72;10278612;28;20151;-76
2021/05/20 05:11:59;;;;;;;145.63;56.30;;;;;;;9.69;100.00;101992.09;10297631;28;20089;-77
2021/05/20 05:17:02;;;;;;;184.50;61.55;;;;;;;10.01;100.00;102024.97;10300704;28;20034;-79
2021/05/20 05:22:05;;;;;;;158.93;58.90;;;;;;;9.91;100.00;101998.34;10267488;28;20475;-79
2021/05/20 05:27:06;;;;;;;241.40;59.30;;;;;;;10.14;100.00;102023.94;10276250;28;20042;-80
2021/05/20 05:32:07;;;;;;;124.43;56.83;;;;;;;10.19;100.00;102022.19;10301004;28;20368;-79
2021/05/20 05:37:08;;;;;;;117.35;56.33;;;;;;;10.24;100.00;102022.78;10289992;28;20484;-80
2021/05/20 05:42:09;;;;;;;140.52;57.80;;;;;;;10.35;100.00;102017.81;10299495;28;20039;-79
2021/05/20 05:47:09;;;;;;;115.05;56.55;;;;;;;10.24;100.00;102016.59;10267102;28;20050;-81
2021/05/20 05:52:16;;;;;;;118.53;51.92;;;;;;;10.33;100.00;102028.94;10267072;28;20047;-81
2021/05/20 05:57:17;;;;;;;113.15;50.50;;;;;;;10.26;100.00;102025.94;10279132;28;20122;-79
2021/05/20 06:02:18;;;;;;;113.22;55.60;;;;;;;10.23;100.00;102033.91;10290513;28;20359;-79
2021/05/20 06:07:19;;;;;;;213.65;52.30;;;;;;;10.19;100.00;102046.50;10279643;28;20463;-80
2021/05/20 06:12:20;;;;;;;175.93;56.58;;;;;;;10.12;100.00;102041.59;10299132;28;20026;-79
2021/05/20 06:17:20;;;;;;;165.40;58.47;;;;;;;10.44;100.00;102053.69;10295468;28;20464;-78
2021/05/20 06:22:21;;;;;;;100.82;54.55;;;;;;;10.68;100.00;102057.66;10262015;28;20030;-80
2021/05/20 06:27:26;;;;;;;94.40;51.05;;;;;;;10.80;100.00;102065.84;10280014;28;20037;-78
2021/05/20 06:32:28;;;;;;;94.28;55.22;;;;;;;10.50;100.00;102057.78;10271905;28;20053;-78
2021/05/20 06:37:28;;;;;;;82.80;51.55;;;;;;;10.95;100.00;102059.81;10296190;28;20066;-79
2021/05/20 06:42:29;;;;;;;71.55;46.22;;;;;;;11.39;100.00;102049.38;10263695;28;20117;-79
2021/05/20 06:47:29;;;;;;;57.40;40.22;;;;;;;11.30;100.00;101997.22;10278451;28;20097;-79
2021/05/20 06:52:30;;;;;;;55.03;38.47;;;;;;;11.85;100.00;102060.97;10280641;28;20117;-79
2021/05/20 06:59:55;;;;;;;53.38;35.78;;;;;;;12.01;100.00;102046.75;10267771;28;20035;-79
2021/05/20 07:02:50;;;;;;;52.10;36.50;;;;;;;11.72;100.00;101991.63;10287685;28;20504;-79
2021/05/20 07:07:51;;;;;;;47.33;34.40;;;;;;;11.59;100.00;101976.50;10293054;28;20043;-80
2021/05/20 07:12:52;;;;;;;35.67;28.73;;;;;;;11.89;100.00;102022.38;10250445;28;20038;-80
2021/05/20 07:17:53;;;;;;;34.00;26.67;;;;;;;12.56;100.00;102007.38;10278400;28;20061;-79
2021/05/20 07:22:53;;;;;;;29.40;22.80;;;;;;;14.94;85.71;102028.97;10298827;28;20049;-79
2021/05/20 07:27:56;;;;;;;26.63;19.17;;;;;;;17.41;70.93;102022.72;10295904;28;20394;-79
2021/05/20 07:32:57;;;;;;;23.15;17.02;;;;;;;18.76;62.65;102005.50;10258567;28;20530;-80
2021/05/20 07:37:57;;;;;;;22.27;15.80;;;;;;;19.54;59.96;102012.28;10271190;28;20039;-78
2021/05/20 07:42:58;;;;;;;15.82;12.07;;;;;;;20.24;55.70;102013.38;10263272;28;20456;-80
2021/05/20 07:47:58;;;;;;;14.85;11.27;;;;;;;20.31;54.89;102006.28;10291715;28;20473;-80
2021/05/20 07:52:59;;;;;;;13.95;10.75;;;;;;;20.08;55.54;102010.28;10266410;28;20019;-80
2021/05/20 07:57:59;;;;;;;13.68;9.10;;;;;;;20.05;54.14;102011.84;10275682;28;20039;-79
2021/05/20 08:03:06;;;;;;;7.75;6.38;;;;;;;20.00;52.17;102014.22;10289338;28;20061;-80
2021/05/20 08:08:19;;;;;;;10.45;7.80;;;;;;;20.46;52.79;102002.31;10272320;28;20046;-81
2021/05/20 08:13:20;;;;;;;10.45;7.20;;;;;;;20.19;53.02;102002.78;10293478;28;20043;-80
2021/05/20 08:18:21;;;;;;;13.30;8.88;;;;;;;19.51;53.05;101988.41;10276566;28;20043;-81
2021/05/20 08:23:21;;;;;;;8.02;5.60;;;;;;;19.12;54.59;101989.16;10264095;28;20126;-80
2021/05/20 08:28:22;;;;;;;8.73;5.28;;;;;;;19.65;52.06;101982.91;10285744;28;20141;-80
2021/05/20 08:33:22;;;;;;;7.60;5.45;;;;;;;19.84;52.01;101993.47;10286738;28;20117;-80
2021/05/20 08:38:23;;;;;;;12.82;6.28;;;;;;;19.67;53.29;101969.59;10285476;28;20070;-81
2021/05/20 08:43:23;;;;;;;8.98;5.43;;;;;;;19.12;52.60;101961.75;10287313;28;20043;-81
2021/05/20 08:48:24;;;;;;;8.40;5.82;;;;;;;18.03;55.45;101959.88;10284938;28;20038;-81
2021/05/20 08:53:24;;;;;;;9.10;5.72;;;;;;;18.29;53.86;101911.50;10278392;28;20122;-78
2021/05/20 08:58:25;;;;;;;9.13;5.50;;;;;;;19.56;51.55;101963.31;10254055;28;20129;-81
2021/05/20 09:03:25;;;;;;;17.67;8.48;;;;;;;19.93;50.63;101920.94;10274475;28;20164;-77
2021/05/20 09:08:32;;;;;;;14.43;9.60;;;;;;;19.97;48.28;101917.00;10298174;28;20054;-77
2021/05/20 09:13:36;;;;;;;20.08;10.48;;;;;;;19.73;50.06;101954.31;10267266;28;20046;-79
2021/05/20 09:18:39;;;;;;;14.95;9.38;;;;;;;20.43;47.80;101931.69;10266421;28;20479;-76
2021/05/20 09:23:47;;;;;;;14.43;7.68;;;;;;;19.74;48.11;101876.31;10279160;28;20039;-80
2021/05/20 09:28:48;;;;;;;7.50;5.28;;;;;;;19.91;48.22;101901.34;10282248;28;20059;-82
2021/05/20 09:33:52;;;;;;;8.60;4.57;;;;;;;19.94;47.15;101862.13;10265483;28;20113;-77
2021/05/20 09:39:12;;;;;;;7.82;4.72;;;;;;;19.70;48.67;101881.03;10293906;28;20093;-81
2021/05/20 09:44:32;;;;;;;9.45;4.60;;;;;;;19.38;48.45;101898.34;10276410;28;22237;-84
2021/05/20 09:50:05;;;;;;;7.80;3.88;;;;;;;19.82;48.82;101899.81;10281077;28;20030;-82
2021/05/20 09:55:20;;;;;;;8.57;3.88;;;;;;;19.23;48.10;101869.34;10268858;28;20045;-84
2021/05/20 10:00:25;;;;;;;6.05;3.50;;;;;;;19.04;49.18;101883.47;10280066;28;20443;-82
2021/05/20 10:05:33;;;;;;;5.57;3.90;;;;;;;19.12;48.40;101863.09;10269370;28;20109;-83
2021/05/20 10:10:45;;;;;;;11.85;3.97;;;;;;;18.53;49.36;101867.00;10266685;28;20551;-86
2021/05/20 10:15:46;;;;;;;7.70;3.23;;;;;;;18.72;50.30;101873.25;10289606;28;20066;-82
2021/05/20 10:20:53;;;;;;;5.53;3.40;;;;;;;18.68;49.56;101842.38;10279904;28;20054;-85
2021/05/20 10:25:54;;;;;;;6.25;3.17;;;;;;;18.17;50.06;101790.28;10252336;28;20145;-78
2021/05/20 10:30:58;;;;;;;5.73;3.40;;;;;;;18.43;50.14;101861.50;10296405;28;20055;-78
2021/05/20 10:36:00;;;;;;;5.07;2.65;;;;;;;18.47;48.88;101846.63;10290848;28;20039;-77
2021/05/20 10:41:09;;;;;;;6.25;3.10;;;;;;;18.44;50.69;101852.91;10275258;28;20039;-77
2021/05/20 10:46:14;;;;;;;5.80;2.90;;;;;;;18.42;50.38;101838.03;10280159;28;20038;-77
2021/05/20 10:51:17;;;;;;;4.60;2.97;;;;;;;18.44;50.15;101831.00;10277058;28;20043;-78
2021/05/20 10:56:17;;;;;;;5.28;3.40;;;;;;;18.15;51.55;101819.19;10243265;28;20031;-79
2021/05/20 11:01:21;;;;;;;5.47;3.42;;;;;;;17.31;50.80;101712.66;10275624;28;20447;-78
2021/05/20 11:06:43;;;;;;;8.90;3.45;;;;;;;18.10;50.15;101806.69;10299655;28;20126;-78
2021/05/20 11:11:44;;;;;;;7.05;3.97;;;;;;;17.77;50.76;101815.16;10271728;28;20858;-78
2021/05/20 11:16:45;;;;;;;8.80;3.95;;;;;;;17.51;51.25;101814.25;10269280;28;20094;-78
2021/05/20 11:21:58;;;;;;;7.20;3.30;;;;;;;17.64;50.39;101801.81;10244975;28;20031;-79
2021/05/20 11:27:03;;;;;;;6.35;3.67;;;;;;;17.55;50.60;101787.72;10251661;28;20389;-77
2021/05/20 11:37:37;;;;;;;7.88;4.00;;;;;;;17.98;49.89;101759.75;10276456;28;20056;-78
2021/05/20 11:42:45;;;;;;;8.80;4.85;;;;;;;17.95;51.35;101755.84;10263445;28;20038;-79
2021/05/20 11:47:54;;;;;;;7.63;4.28;;;;;;;17.12;49.35;101634.53;10281825;28;20053;-78
2021/05/20 11:52:56;;;;;;;7.07;3.42;;;;;;;17.38;49.09;101692.75;10246634;28;20038;-78
2021/05/20 11:58:01;;;;;;;8.90;4.00;;;;;;;17.73;50.59;101712.00;10273532;28;20034;-79
2021/05/20 12:03:09;;;;;;;10.13;5.15;;;;;;;17.82;51.82;101730.78;10280803;28;20058;-78
2021/05/20 12:08:19;;;;;;;6.93;4.63;;;;;;;17.77;53.16;101716.69;10238084;28;20088;-80
2021/05/20 12:13:19;;;;;;;6.60;3.53;;;;;;;17.84;50.96;101724.94;10288599;28;20046;-80
2021/05/20 12:18:21;;;;;;;8.60;2.95;;;;;;;17.57;51.59;101714.31;10299100;28;20047;-79
2021/05/20 12:23:22;;;;;;;5.77;2.30;;;;;;;17.39;50.18;101686.13;10267359;28;20043;-79
2021/05/20 12:28:25;;;;;;;2.55;1.90;;;;;;;17.24;49.21;101716.13;10280291;28;20043;-78
2021/05/20 12:33:35;;;;;;;3.20;2.30;;;;;;;16.84;51.93;101700.72;10258261;28;20063;-80
2021/05/20 12:38:37;;;;;;;6.63;3.40;;;;;;;16.61;53.42;101692.72;10248684;28;20122;-78
2021/05/20 12:43:39;;;;;;;4.78;2.55;;;;;;;16.69;53.31;101699.78;10273479;28;20097;-80
2021/05/20 12:48:44;;;;;;;4.90;3.13;;;;;;;16.57;53.76;101686.47;10292872;28;20031;-79
2021/05/20 12:53:53;;;;;;;5.90;3.70;;;;;;;16.61;55.12;101684.53;10268520;28;20051;-80
2021/05/20 12:58:59;;;;;;;6.65;3.10;;;;;;;15.96;55.84;101648.56;10267676;28;20078;-79
2021/05/20 13:04:28;;;;;;;5.97;3.10;;;;;;;16.65;56.19;101704.44;10273471;28;20050;-78
2021/05/20 13:09:30;;;;;;;5.82;3.67;;;;;;;16.48;58.27;101679.41;10253520;28;20042;-78
2021/05/20 13:19:48;;;;;;;4.43;2.47;;;;;;;16.44;55.18;101678.56;10274290;28;20461;-79
2021/05/20 13:24:54;;;;;;;4.18;2.30;;;;;;;16.17;57.49;101653.41;10280306;28;20057;-81
2021/05/20 13:29:58;;;;;;;6.57;2.10;;;;;;;16.02;56.54;101608.13;10286888;28;20332;-80
2021/05/20 13:34:59;;;;;;;2.92;2.13;;;;;;;16.49;55.90;101648.19;10257692;28;20432;-78
2021/05/20 13:40:11;;;;;;;3.00;2.17;;;;;;;16.05;58.27;101651.75;10281762;28;20035;-81
2021/05/20 13:45:15;;;;;;;5.10;2.22;;;;;;;15.76;57.28;101633.59;10298437;28;20035;-81
2021/05/20 13:50:16;;;;;;;6.30;2.40;;;;;;;15.39;57.34;101560.78;10265613;28;20089;-80
2021/05/20 13:55:18;;;;;;;3.75;2.30;;;;;;;16.19;58.07;101633.94;10291571;28;20061;-79
2021/05/20 14:00:39;;;;;;;4.57;2.47;;;;;;;15.97;57.33;101573.78;10271935;28;20053;-76
2021/05/20 14:05:40;;;;;;;4.88;1.98;;;;;;;16.40;56.17;101623.19;10272739;28;20455;-78
2021/05/20 14:10:41;;;;;;;5.82;1.85;;;;;;;16.36;55.91;101611.47;10254041;28;20073;-80
2021/05/20 14:15:44;;;;;;;4.80;1.92;;;;;;;16.59;55.87;101618.63;10280969;28;20042;-80
2021/05/20 14:20:45;;;;;;;8.48;1.92;;;;;;;16.35;53.96;101604.44;10245974;28;20034;-82
2021/05/20 14:25:46;;;;;;;6.72;2.25;;;;;;;15.86;54.89;101545.66;10263259;28;20046;-80
2021/05/20 14:30:47;;;;;;;5.88;1.40;;;;;;;15.97;54.41;101590.16;10277681;28;20030;-79
2021/05/20 14:35:47;;;;;;;5.22;1.40;;;;;;;16.00;55.73;101553.94;10271942;28;20047;-81
2021/05/20 14:40:48;;;;;;;4.45;1.48;;;;;;;16.39;54.38;101577.16;10293292;28;20726;-80
2021/05/20 14:45:48;;;;;;;5.95;1.58;;;;;;;16.21;54.95;101555.25;10279713;28;20046;-82
2021/05/20 14:51:06;;;;;;;3.50;1.67;;;;;;;15.93;55.72;101540.25;10258171;28;20154;-79
2021/05/20 14:56:18;;;;;;;6.93;1.70;;;;;;;15.81;57.02;101505.91;10248489;28;20379;-81
2021/05/20 15:06:39;;;;;;;2.90;1.50;;;;;;;16.39;54.36;101520.69;10261624;28;20204;-80
2021/05/20 15:16:45;;;;;;;6.05;1.67;;;;;;;16.44;51.55;101473.91;10252876;28;20046;-80
2021/05/20 15:21:45;;;;;;;6.22;1.98;;;;;;;16.45;51.65;101470.00;10264280;28;20039;-80
2021/05/20 15:26:45;;;;;;;3.17;1.33;;;;;;;16.29;53.48;101461.38;10290708;28;20046;-80
2021/05/20 15:31:46;;;;;;;5.82;1.50;;;;;;;16.16;53.99;101454.69;10286275;28;20396;-78
2021/05/20 15:36:48;;;;;;;5.80;1.70;;;;;;;16.01;53.79;101438.25;10293713;28;20042;-79
2021/05/20 15:41:49;;;;;;;5.60;1.73;;;;;;;15.93;54.47;101403.94;10250118;28;20051;-79
2021/05/20 15:46:55;;;;;;;7.13;1.58;;;;;;;15.76;54.19;101410.06;10279817;28;20182;-79
2021/05/20 15:51:56;;;;;;;6.57;1.92;;;;;;;15.82;54.16;101398.41;10281050;28;20190;-80
2021/05/20 15:56:56;;;;;;;9.45;1.50;;;;;;;15.89;54.23;101403.13;10275142;28;20051;-78
2021/05/20 16:01:57;;;;;;;5.28;1.23;;;;;;;15.71;55.67;101374.97;10272641;28;20062;-77
2021/05/20 16:07:07;;;;;;;6.85;1.60;;;;;;;16.05;55.26;101383.72;10264937;28;20048;-77
2021/05/20 16:17:13;;;;;;;9.15;1.95;;;;;;;15.80;55.89;101329.09;10278303;28;20117;-76
2021/05/20 16:22:17;;;;;;;5.47;1.75;;;;;;;15.67;56.10;101314.22;10255691;28;20053;-77
2021/05/20 16:37:59;;;;;;;7.95;2.85;;;;;;;15.45;59.76;101308.66;10293960;28;20337;-77
2021/05/20 16:43:00;;;;;;;13.27;5.40;;;;;;;15.13;60.83;101260.22;10276684;28;20061;-79
2021/05/20 16:48:00;;;;;;;6.70;2.30;;;;;;;15.56;59.69;101298.59;10272042;28;20035;-79
2021/05/20 16:53:02;;;;;;;10.60;2.80;;;;;;;15.48;60.83;101291.53;10257103;28;20043;-78
2021/05/20 16:58:28;;;;;;;6.28;2.90;;;;;;;15.38;58.81;101248.66;10275581;28;20407;-80
2021/05/20 17:03:28;;;;;;;5.53;1.65;;;;;;;15.45;58.98;101270.53;10253881;28;20141;-83
2021/05/20 17:08:29;;;;;;;6.78;1.55;;;;;;;15.63;59.73;101284.97;10295562;28;20582;-81
2021/05/20 17:13:44;;;;;;;4.57;1.00;;;;;;;15.57;59.42;101294.72;10291834;28;20078;-82
2021/05/20 17:18:44;;;;;;;3.03;1.17;;;;;;;15.25;58.73;101250.19;10248558;28;20034;-86
2021/05/20 17:23:45;;;;;;;5.30;2.22;;;;;;;15.40;56.78;101251.78;10250973;28;20361;-83
2021/05/20 17:28:45;;;;;;;4.32;1.10;;;;;;;15.42;56.50;101246.75;10279707;28;20082;-84
2021/05/20 17:33:46;;;;;;;4.05;1.00;;;;;;;15.39;57.08;101217.56;10282823;28;20053;-84
2021/05/20 17:38:47;;;;;;;1.73;0.95;;;;;;;15.68;56.02;101223.09;10269191;28;20440;-83
2021/05/20 17:43:48;;;;;;;5.22;0.90;;;;;;;15.46;55.30;101206.69;10256714;28;20502;-83
2021/05/20 17:48:48;;;;;;;3.42;1.10;;;;;;;15.65;55.08;101208.31;10271433;28;20035;-84
2021/05/20 17:53:49;;;;;;;6.38;1.27;;;;;;;15.42;55.39;101192.25;10261486;28;20364;-82
2021/05/20 17:58:49;;;;;;;5.65;1.20;;;;;;;15.14;55.66;101125.63;10279326;28;20455;-83
2021/05/20 18:03:51;;;;;;;5.72;1.60;;;;;;;15.26;56.41;101165.34;10277654;28;20152;-81
2021/05/20 18:08:59;;;;;;;5.20;1.60;;;;;;;15.37;56.95;101170.84;10270945;28;20407;-82
2021/05/20 18:14:07;;;;;;;5.93;1.83;;;;;;;15.34;57.21;101171.63;10280878;28;20631;-80
2021/05/20 18:24:15;;;;;;;4.47;1.83;;;;;;;15.32;58.57;101122.19;10255410;28;20058;-83
2021/05/20 18:29:21;;;;;;;6.95;1.67;;;;;;;15.22;58.53;101105.44;10274614;28;20065;-80
2021/05/20 18:34:22;;;;;;;6.57;1.77;;;;;;;15.37;58.73;101106.25;10280063;28;20031;-81
2021/05/20 18:39:36;;;;;;;7.10;3.33;;;;;;;15.32;59.13;101092.25;10280368;28;20399;-82
2021/05/20 18:44:40;;;;;;;5.30;1.77;;;;;;;15.18;59.53;101082.84;10264262;28;20431;-81
2021/05/20 18:49:40;;;;;;;6.80;2.25;;;;;;;15.19;60.37;101062.66;10284587;28;20517;-81
2021/05/20 18:54:51;;;;;;;6.30;2.50;;;;;;;15.12;60.40;101045.50;10268354;28;20046;-82
2021/05/20 18:59:52;;;;;;;6.07;1.70;;;;;;;15.07;61.25;101011.25;10265471;28;20046;-84
2021/05/20 19:04:54;;;;;;;5.13;1.50;;;;;;;15.00;61.74;101005.78;10278412;28;20488;-81
2021/05/20 19:09:55;;;;;;;3.50;1.67;;;;;;;14.87;62.10;100999.16;10241331;28;20058;-85
2021/05/20 19:14:55;;;;;;;3.90;1.45;;;;;;;14.76;62.63;100969.94;10240328;28;20061;-81
2021/05/20 19:19:57;;;;;;;5.70;1.65;;;;;;;14.85;62.64;100971.53;10251132;28;20046;-83
2021/05/20 19:24:58;;;;;;;8.07;1.85;;;;;;;14.94;62.74;100963.78;10266253;28;20499;-83
2021/05/20 19:29:59;;;;;;;5.05;1.83;;;;;;;15.00;62.83;100956.78;10261275;28;20047;-82
2021/05/20 19:35:00;;;;;;;4.38;1.55;;;;;;;14.99;62.78;100960.69;10249940;28;20528;-81
2021/05/20 19:40:00;;;;;;;4.32;1.77;;;;;;;14.76;63.10;100942.75;10261215;28;20035;-81
2021/05/20 19:45:01;;;;;;;7.05;1.40;;;;;;;14.82;63.29;100928.78;10287311;28;20367;-83
2021/05/20 19:50:11;;;;;;;4.03;1.50;;;;;;;14.84;63.49;100910.09;10289464;28;20053;-83
2021/05/20 20:00:32;;;;;;;3.92;1.33;;;;;;;14.92;63.56;100868.13;10285760;28;20144;-83
2021/05/20 20:10:34;;;;;;;5.10;1.52;;;;;;;14.96;64.52;100901.59;10292014;28;20377;-82
2021/05/20 20:15:34;;;;;;;6.33;1.50;;;;;;;14.68;64.10;100837.78;10273298;28;20090;-84
2021/05/20 20:20:38;;;;;;;6.70;2.67;;;;;;;15.06;64.08;100879.03;10298864;28;20105;-87
2021/05/20 20:31:03;;;;;;;6.93;1.63;;;;;;;14.53;64.34;100787.22;10266070;28;20054;-82
2021/05/20 20:36:37;;;;;;;6.43;1.52;;;;;;;14.97;64.43;100833.13;10295605;28;20042;-85
2021/05/20 20:41:32;;;;;;;4.85;1.55;;;;;;;14.85;64.83;100806.31;10260401;28;20042;-82
2021/05/20 20:46:35;;;;;;;8.93;2.20;;;;;;;14.87;64.43;100784.16;10299747;28;20137;-81
2021/05/20 20:51:37;;;;;;;3.17;1.30;;;;;;;15.04;64.40;100783.34;10282700;28;20129;-81
2021/05/20 20:56:38;;;;;;;4.93;1.63;;;;;;;15.01;65.06;100795.03;10299829;28;20053;-80
2021/05/20 21:01:39;;;;;;;7.72;1.60;;;;;;;14.88;65.07;100786.47;10281625;28;20023;-81
2021/05/20 21:06:39;;;;;;;3.42;1.48;;;;;;;14.91;65.63;100790.34;10274349;28;20055;-82
2021/05/20 21:11:40;;;;;;;8.32;1.60;;;;;;;14.89;65.50;100762.78;10260158;28;20066;-83
2021/05/20 21:16:41;;;;;;;4.97;1.30;;;;;;;14.99;65.15;100742.94;10270966;28;20038;-83
2021/05/20 21:21:41;;;;;;;7.28;1.33;;;;;;;14.93;65.35;100749.91;10281026;28;20420;-81
2021/05/20 21:26:42;;;;;;;4.82;1.98;;;;;;;15.03;65.51;100727.38;10281802;28;20062;-81
2021/05/20 21:31:42;;;;;;;1.80;1.00;;;;;;;15.13;65.21;100737.44;10270591;28;20046;-82
2021/05/20 21:36:43;;;;;;;4.63;1.13;;;;;;;15.11;65.13;100707.13;10298666;28;20101;-84
2021/05/20 21:41:43;;;;;;;6.65;1.20;;;;;;;15.27;64.79;100735.88;10282511;28;20498;-85
2021/05/20 21:46:44;;;;;;;5.95;1.23;;;;;;;15.23;65.63;100724.97;10274520;28;20456;-82
2021/05/20 21:51:46;;;;;;;3.92;1.08;;;;;;;15.22;64.89;100701.66;10275440;28;20069;-82
2021/05/20 21:56:46;;;;;;;4.57;1.00;;;;;;;15.23;65.00;100703.97;10293209;28;20046;-81
2021/05/20 22:01:47;;;;;;;2.53;0.82;;;;;;;15.16;64.93;100687.66;10246534;28;20290;-84
2021/05/20 22:06:48;;;;;;;6.22;1.33;;;;;;;15.12;65.75;100684.19;10280760;28;20567;-84
2021/05/20 22:11:58;;;;;;;5.72;1.23;;;;;;;14.88;66.43;100655.06;10295329;28;20317;-77
2021/05/20 22:17:00;;;;;;;4.10;1.25;;;;;;;14.71;66.18;100619.34;10291363;28;20042;-81
2021/05/20 22:22:00;;;;;;;3.60;1.20;;;;;;;14.85;66.79;100636.81;10256371;28;20438;-83
2021/05/20 22:32:25;;;;;;;4.25;1.40;;;;;;;14.91;66.40;100644.19;10276408;28;20424;-78
2021/05/20 22:37:25;;;;;;;5.55;1.08;;;;;;;14.45;66.84;100584.41;10293336;28;20539;-78
2021/05/20 22:42:26;;;;;;;2.30;0.70;;;;;;;14.83;67.09;100652.75;10262032;28;20039;-78
2021/05/20 22:47:26;;;;;;;3.22;1.10;;;;;;;14.76;67.45;100645.38;10241940;28;20035;-79
2021/05/20 22:52:29;;;;;;;2.33;0.95;;;;;;;14.84;66.75;100632.53;10271771;28;20051;-77
2021/05/20 22:57:30;;;;;;;3.40;1.02;;;;;;;14.50;67.53;100589.44;10262075;28;20070;-79
2021/05/20 23:02:30;;;;;;;5.90;1.00;;;;;;;14.76;67.94;100616.22;10262221;28;20121;-79
2021/05/20 23:07:31;;;;;;;3.88;0.90;;;;;;;14.69;68.45;100610.78;10266960;28;20447;-79
2021/05/20 23:12:31;;;;;;;2.53;0.80;;;;;;;14.65;67.27;100588.28;10279467;28;20125;-79
2021/05/20 23:17:32;;;;;;;3.50;0.90;;;;;;;14.44;67.58;100550.22;10274765;28;20117;-79
2021/05/20 23:22:33;;;;;;;3.65;0.80;;;;;;;14.41;66.86;100535.44;10275387;28;20031;-78
2021/05/20 23:27:33;;;;;;;7.68;0.70;;;;;;;14.65;67.35;100555.66;10273826;28;20130;-78
2021/05/20 23:32:35;;;;;;;3.95;0.88;;;;;;;14.65;67.33;100555.66;10265266;28;20053;-78
2021/05/20 23:37:36;;;;;;;4.43;1.00;;;;;;;14.60;66.82;100542.41;10281769;28;20055;-78
2021/05/20 23:42:36;;;;;;;3.25;0.60;;;;;;;14.71;66.20;100537.72;10281306;28;20057;-78
2021/05/20 23:47:37;;;;;;;2.78;0.82;;;;;;;14.64;66.54;100559.50;10290835;28;20050;-78
2021/05/20 23:52:38;;;;;;;2.17;0.65;;;;;;;14.77;66.14;100552.47;10274719;28;20043;-78
2021/05/20 23:57:38;;;;;;;7.53;2.55;;;;;;;14.26;66.30;100485.00;10252386;28;20430;-78
